sensor_id;sensor_type;location;lat;lon;timestamp;temperature;humidity
21335;DHT22;69435;52.670;13.544;2023-04-30T00:00:10;9.90;50.80
21335;DHT22;69435;52.670;13.544;2023-04-30T00:02:57;9.80;50.70
21335;DHT22;69435;52.670;13.544;2023-04-30T00:05:43;9.80;50.70
21335;DHT22;69435;52.670;13.544;2023-04-30T00:08:29;9.70;50.70
21335;DHT22;69435;52.670;13.544;2023-04-30T00:11:15;9.70;50.80
21335;DHT22;69435;52.670;13.544;2023-04-30T00:14:01;9.60;50.80
21335;DHT22;69435;52.670;13.544;2023-04-30T00:16:47;9.60;51.00
21335;DHT22;69435;52.670;13.544;2023-04-30T00:19:32;9.60;51.10
21335;DHT22;69435;52.670;13.544;2023-04-30T00:22:18;9.50;51.10
21335;DHT22;69435;52.670;13.544;2023-04-30T00:25:05;9.50;51.00
21335;DHT22;69435;52.670;13.544;2023-04-30T00:27:51;9.50;50.90
21335;DHT22;69435;52.670;13.544;2023-04-30T00:30:37;9.40;51.00
21335;DHT22;69435;52.670;13.544;2023-04-30T00:33:23;9.40;51.10
21335;DHT22;69435;52.670;13.544;2023-04-30T00:36:09;9.40;51.20
21335;DHT22;69435;52.670;13.544;2023-04-30T00:38:55;9.30;51.20
21335;DHT22;69435;52.670;13.544;2023-04-30T00:41:41;9.30;51.30
21335;DHT22;69435;52.670;13.544;2023-04-30T00:44:28;9.30;51.40
21335;DHT22;69435;52.670;13.544;2023-04-30T00:47:13;9.20;51.20
21335;DHT22;69435;52.670;13.544;2023-04-30T00:49:59;9.20;51.20
21335;DHT22;69435;52.670;13.544;2023-04-30T00:52:45;9.10;51.30
21335;DHT22;69435;52.670;13.544;2023-04-30T00:55:31;9.10;51.30
21335;DHT22;69435;52.670;13.544;2023-04-30T00:58:18;9.10;51.40
21335;DHT22;69435;52.670;13.544;2023-04-30T01:01:05;9.00;51.40
21335;DHT22;69435;52.670;13.544;2023-04-30T01:03:51;9.00;51.40
21335;DHT22;69435;52.670;13.544;2023-04-30T01:06:37;9.00;51.50
21335;DHT22;69435;52.670;13.544;2023-04-30T01:09:24;8.90;51.70
21335;DHT22;69435;52.670;13.544;2023-04-30T01:12:33;8.90;51.70
21335;DHT22;69435;52.670;13.544;2023-04-30T01:16:26;8.80;51.60
21335;DHT22;69435;52.670;13.544;2023-04-30T01:19:28;8.70;51.80
21335;DHT22;69435;52.670;13.544;2023-04-30T01:22:36;8.70;52.00
21335;DHT22;69435;52.670;13.544;2023-04-30T01:28:59;8.50;52.30
21335;DHT22;69435;52.670;13.544;2023-04-30T01:31:48;8.50;52.60
21335;DHT22;69435;52.670;13.544;2023-04-30T01:34:34;8.40;52.80
21335;DHT22;69435;52.670;13.544;2023-04-30T01:37:27;8.30;52.90
21335;DHT22;69435;52.670;13.544;2023-04-30T01:40:24;8.30;53.10
21335;DHT22;69435;52.670;13.544;2023-04-30T01:43:36;8.20;53.40
21335;DHT22;69435;52.670;13.544;2023-04-30T01:46:29;8.10;53.60
21335;DHT22;69435;52.670;13.544;2023-04-30T01:49:32;8.00;53.90
21335;DHT22;69435;52.670;13.544;2023-04-30T01:52:50;8.00;54.00
21335;DHT22;69435;52.670;13.544;2023-04-30T01:56:01;7.80;54.10
21335;DHT22;69435;52.670;13.544;2023-04-30T01:58:48;7.80;54.50
21335;DHT22;69435;52.670;13.544;2023-04-30T02:01:37;7.70;54.70
21335;DHT22;69435;52.670;13.544;2023-04-30T02:04:23;7.60;54.80
21335;DHT22;69435;52.670;13.544;2023-04-30T02:07:10;7.60;55.00
21335;DHT22;69435;52.670;13.544;2023-04-30T02:09:57;7.50;55.00
21335;DHT22;69435;52.670;13.544;2023-04-30T02:12:43;7.50;55.10
21335;DHT22;69435;52.670;13.544;2023-04-30T02:15:29;7.40;55.10
21335;DHT22;69435;52.670;13.544;2023-04-30T02:18:15;7.30;55.20
21335;DHT22;69435;52.670;13.544;2023-04-30T02:21:01;7.30;55.40
21335;DHT22;69435;52.670;13.544;2023-04-30T02:23:47;7.20;55.30
21335;DHT22;69435;52.670;13.544;2023-04-30T02:26:34;7.20;55.40
21335;DHT22;69435;52.670;13.544;2023-04-30T02:29:20;7.20;55.50
21335;DHT22;69435;52.670;13.544;2023-04-30T02:32:06;7.10;55.70
21335;DHT22;69435;52.670;13.544;2023-04-30T02:34:52;7.10;55.90
21335;DHT22;69435;52.670;13.544;2023-04-30T02:37:38;7.00;55.90
21335;DHT22;69435;52.670;13.544;2023-04-30T02:40:24;7.00;56.10
21335;DHT22;69435;52.670;13.544;2023-04-30T02:43:11;6.90;56.10
21335;DHT22;69435;52.670;13.544;2023-04-30T02:45:57;6.90;56.20
21335;DHT22;69435;52.670;13.544;2023-04-30T02:48:43;6.80;56.20
21335;DHT22;69435;52.670;13.544;2023-04-30T02:51:29;6.80;56.20
21335;DHT22;69435;52.670;13.544;2023-04-30T02:54:17;6.70;56.60
21335;DHT22;69435;52.670;13.544;2023-04-30T02:57:03;6.70;56.40
21335;DHT22;69435;52.670;13.544;2023-04-30T02:59:49;6.70;56.40
21335;DHT22;69435;52.670;13.544;2023-04-30T03:02:35;6.60;56.30
21335;DHT22;69435;52.670;13.544;2023-04-30T03:05:23;6.60;56.30
21335;DHT22;69435;52.670;13.544;2023-04-30T03:08:09;6.60;56.30
21335;DHT22;69435;52.670;13.544;2023-04-30T03:10:55;6.50;56.30
21335;DHT22;69435;52.670;13.544;2023-04-30T03:13:42;6.50;56.40
21335;DHT22;69435;52.670;13.544;2023-04-30T03:16:28;6.50;56.40
21335;DHT22;69435;52.670;13.544;2023-04-30T03:19:15;6.40;56.30
21335;DHT22;69435;52.670;13.544;2023-04-30T03:22:02;6.30;56.40
21335;DHT22;69435;52.670;13.544;2023-04-30T03:24:48;6.30;56.40
21335;DHT22;69435;52.670;13.544;2023-04-30T03:27:34;6.20;56.60
21335;DHT22;69435;52.670;13.544;2023-04-30T03:30:20;6.20;56.50
21335;DHT22;69435;52.670;13.544;2023-04-30T03:33:06;6.20;56.60
21335;DHT22;69435;52.670;13.544;2023-04-30T03:35:52;6.10;56.50
21335;DHT22;69435;52.670;13.544;2023-04-30T03:38:39;6.10;56.50
21335;DHT22;69435;52.670;13.544;2023-04-30T03:41:26;6.00;56.50
21335;DHT22;69435;52.670;13.544;2023-04-30T03:44:12;6.00;56.60
21335;DHT22;69435;52.670;13.544;2023-04-30T03:47:00;6.00;56.60
21335;DHT22;69435;52.670;13.544;2023-04-30T03:49:46;6.00;56.80
21335;DHT22;69435;52.670;13.544;2023-04-30T03:52:39;5.90;56.90
21335;DHT22;69435;52.670;13.544;2023-04-30T03:55:25;5.90;57.00
21335;DHT22;69435;52.670;13.544;2023-04-30T03:58:11;5.90;57.20
21335;DHT22;69435;52.670;13.544;2023-04-30T04:00:57;5.90;57.30
21335;DHT22;69435;52.670;13.544;2023-04-30T04:03:43;5.90;57.50
21335;DHT22;69435;52.670;13.544;2023-04-30T04:06:29;5.90;57.60
21335;DHT22;69435;52.670;13.544;2023-04-30T04:09:16;5.90;57.80
21335;DHT22;69435;52.670;13.544;2023-04-30T04:12:02;5.80;57.80
21335;DHT22;69435;52.670;13.544;2023-04-30T04:14:48;5.90;58.10
21335;DHT22;69435;52.670;13.544;2023-04-30T04:17:34;5.90;58.10
21335;DHT22;69435;52.670;13.544;2023-04-30T04:20:20;5.90;58.20
21335;DHT22;69435;52.670;13.544;2023-04-30T04:23:06;5.90;58.30
21335;DHT22;69435;52.670;13.544;2023-04-30T04:25:51;6.00;58.40
21335;DHT22;69435;52.670;13.544;2023-04-30T04:28:38;6.00;58.50
21335;DHT22;69435;52.670;13.544;2023-04-30T04:31:25;6.00;58.60
21335;DHT22;69435;52.670;13.544;2023-04-30T04:34:11;6.00;58.70
21335;DHT22;69435;52.670;13.544;2023-04-30T04:36:57;6.10;58.90
21335;DHT22;69435;52.670;13.544;2023-04-30T04:39:43;6.10;59.00
21335;DHT22;69435;52.670;13.544;2023-04-30T04:42:29;6.20;59.20
21335;DHT22;69435;52.670;13.544;2023-04-30T04:45:16;6.20;59.60
21335;DHT22;69435;52.670;13.544;2023-04-30T04:48:04;6.30;59.80
21335;DHT22;69435;52.670;13.544;2023-04-30T04:50:50;6.40;60.30
21335;DHT22;69435;52.670;13.544;2023-04-30T04:53:36;6.40;60.70
21335;DHT22;69435;52.670;13.544;2023-04-30T04:56:22;6.50;61.00
21335;DHT22;69435;52.670;13.544;2023-04-30T04:59:08;6.50;61.00
21335;DHT22;69435;52.670;13.544;2023-04-30T05:01:54;6.60;61.00
21335;DHT22;69435;52.670;13.544;2023-04-30T05:04:40;6.70;61.10
21335;DHT22;69435;52.670;13.544;2023-04-30T05:07:27;6.80;60.90
21335;DHT22;69435;52.670;13.544;2023-04-30T05:10:12;7.00;60.90
21335;DHT22;69435;52.670;13.544;2023-04-30T05:12:58;7.10;60.80
21335;DHT22;69435;52.670;13.544;2023-04-30T05:15:45;7.20;60.70
21335;DHT22;69435;52.670;13.544;2023-04-30T05:18:31;7.20;60.50
21335;DHT22;69435;52.670;13.544;2023-04-30T05:21:18;7.30;60.40
21335;DHT22;69435;52.670;13.544;2023-04-30T05:24:04;7.40;60.40
21335;DHT22;69435;52.670;13.544;2023-04-30T05:26:50;7.50;60.30
21335;DHT22;69435;52.670;13.544;2023-04-30T05:29:36;7.70;60.10
21335;DHT22;69435;52.670;13.544;2023-04-30T05:32:22;7.80;60.30
21335;DHT22;69435;52.670;13.544;2023-04-30T05:35:08;8.10;60.80
21335;DHT22;69435;52.670;13.544;2023-04-30T05:37:54;8.50;60.10
21335;DHT22;69435;52.670;13.544;2023-04-30T05:40:40;9.20;58.50
21335;DHT22;69435;52.670;13.544;2023-04-30T05:43:26;10.10;56.60
21335;DHT22;69435;52.670;13.544;2023-04-30T05:46:12;10.70;54.80
21335;DHT22;69435;52.670;13.544;2023-04-30T05:48:58;11.00;51.70
21335;DHT22;69435;52.670;13.544;2023-04-30T05:51:44;10.90;51.00
21335;DHT22;69435;52.670;13.544;2023-04-30T05:54:30;10.70;50.80
21335;DHT22;69435;52.670;13.544;2023-04-30T05:57:16;10.60;51.00
21335;DHT22;69435;52.670;13.544;2023-04-30T06:00:02;10.40;51.50
21335;DHT22;69435;52.670;13.544;2023-04-30T06:02:51;10.30;50.60
21335;DHT22;69435;52.670;13.544;2023-04-30T06:05:38;10.30;51.40
21335;DHT22;69435;52.670;13.544;2023-04-30T06:08:25;10.20;51.10
21335;DHT22;69435;52.670;13.544;2023-04-30T06:11:12;10.20;51.40
21335;DHT22;69435;52.670;13.544;2023-04-30T06:13:58;10.10;51.00
21335;DHT22;69435;52.670;13.544;2023-04-30T06:16:45;10.10;50.70
21335;DHT22;69435;52.670;13.544;2023-04-30T06:19:31;10.10;50.40
21335;DHT22;69435;52.670;13.544;2023-04-30T06:22:17;10.20;50.90
21335;DHT22;69435;52.670;13.544;2023-04-30T06:25:03;10.20;51.20
21335;DHT22;69435;52.670;13.544;2023-04-30T06:27:50;10.30;50.90
21335;DHT22;69435;52.670;13.544;2023-04-30T06:30:39;10.40;49.80
21335;DHT22;69435;52.670;13.544;2023-04-30T06:33:25;10.50;49.70
21335;DHT22;69435;52.670;13.544;2023-04-30T06:36:11;10.50;48.40
21335;DHT22;69435;52.670;13.544;2023-04-30T06:38:57;10.60;48.20
21335;DHT22;69435;52.670;13.544;2023-04-30T06:41:43;10.60;47.10
21335;DHT22;69435;52.670;13.544;2023-04-30T06:44:29;10.50;47.40
21335;DHT22;69435;52.670;13.544;2023-04-30T06:47:16;10.60;47.90
21335;DHT22;69435;52.670;13.544;2023-04-30T06:50:02;10.60;47.50
21335;DHT22;69435;52.670;13.544;2023-04-30T06:52:48;10.70;46.90
21335;DHT22;69435;52.670;13.544;2023-04-30T06:55:34;10.80;46.90
21335;DHT22;69435;52.670;13.544;2023-04-30T06:58:20;10.80;46.40
21335;DHT22;69435;52.670;13.544;2023-04-30T07:01:06;10.90;47.60
21335;DHT22;69435;52.670;13.544;2023-04-30T07:03:52;11.00;47.90
21335;DHT22;69435;52.670;13.544;2023-04-30T07:06:39;11.10;46.70
21335;DHT22;69435;52.670;13.544;2023-04-30T07:09:25;11.20;45.10
21335;DHT22;69435;52.670;13.544;2023-04-30T07:12:11;11.30;45.50
21335;DHT22;69435;52.670;13.544;2023-04-30T07:14:58;11.40;44.10
21335;DHT22;69435;52.670;13.544;2023-04-30T07:17:44;11.40;43.60
21335;DHT22;69435;52.670;13.544;2023-04-30T07:20:30;11.40;44.10
21335;DHT22;69435;52.670;13.544;2023-04-30T07:23:15;11.50;45.00
21335;DHT22;69435;52.670;13.544;2023-04-30T07:26:02;11.80;44.60
21335;DHT22;69435;52.670;13.544;2023-04-30T07:28:48;12.20;42.50
21335;DHT22;69435;52.670;13.544;2023-04-30T07:31:34;12.90;41.40
21335;DHT22;69435;52.670;13.544;2023-04-30T07:34:20;13.90;39.60
21335;DHT22;69435;52.670;13.544;2023-04-30T07:37:07;14.90;37.70
21335;DHT22;69435;52.670;13.544;2023-04-30T07:39:54;15.90;36.50
21335;DHT22;69435;52.670;13.544;2023-04-30T07:42:41;16.80;35.00
21335;DHT22;69435;52.670;13.544;2023-04-30T07:45:27;17.70;34.20
21335;DHT22;69435;52.670;13.544;2023-04-30T07:48:13;18.60;32.00
21335;DHT22;69435;52.670;13.544;2023-04-30T07:50:59;19.20;29.70
21335;DHT22;69435;52.670;13.544;2023-04-30T07:53:45;19.60;29.60
21335;DHT22;69435;52.670;13.544;2023-04-30T07:56:31;20.10;28.80
21335;DHT22;69435;52.670;13.544;2023-04-30T07:59:17;20.30;26.00
21335;DHT22;69435;52.670;13.544;2023-04-30T08:02:07;20.30;25.90
21335;DHT22;69435;52.670;13.544;2023-04-30T08:04:53;20.30;25.50
21335;DHT22;69435;52.670;13.544;2023-04-30T08:07:40;20.50;25.90
21335;DHT22;69435;52.670;13.544;2023-04-30T08:10:26;20.90;26.30
21335;DHT22;69435;52.670;13.544;2023-04-30T08:13:12;21.20;24.10
21335;DHT22;69435;52.670;13.544;2023-04-30T08:15:58;21.50;25.20
21335;DHT22;69435;52.670;13.544;2023-04-30T08:18:44;21.70;24.30
21335;DHT22;69435;52.670;13.544;2023-04-30T08:21:32;22.20;24.60
21335;DHT22;69435;52.670;13.544;2023-04-30T08:24:18;22.70;24.30
21335;DHT22;69435;52.670;13.544;2023-04-30T08:27:04;23.00;22.10
21335;DHT22;69435;52.670;13.544;2023-04-30T08:29:51;23.20;21.10
21335;DHT22;69435;52.670;13.544;2023-04-30T08:32:37;23.20;22.30
21335;DHT22;69435;52.670;13.544;2023-04-30T08:35:23;23.50;22.30
21335;DHT22;69435;52.670;13.544;2023-04-30T08:38:09;23.60;20.70
21335;DHT22;69435;52.670;13.544;2023-04-30T08:41:13;23.70;20.30
21335;DHT22;69435;52.670;13.544;2023-04-30T08:44:01;23.70;19.90
21335;DHT22;69435;52.670;13.544;2023-04-30T08:46:53;23.70;22.20
21335;DHT22;69435;52.670;13.544;2023-04-30T08:49:40;23.80;19.40
21335;DHT22;69435;52.670;13.544;2023-04-30T08:52:29;23.60;19.70
21335;DHT22;69435;52.670;13.544;2023-04-30T08:55:18;23.50;19.40
21335;DHT22;69435;52.670;13.544;2023-04-30T08:58:04;23.50;19.80
21335;DHT22;69435;52.670;13.544;2023-04-30T09:00:50;23.60;21.80
21335;DHT22;69435;52.670;13.544;2023-04-30T09:03:36;23.90;22.40
21335;DHT22;69435;52.670;13.544;2023-04-30T09:06:23;24.40;21.50
21335;DHT22;69435;52.670;13.544;2023-04-30T09:09:12;24.80;20.50
21335;DHT22;69435;52.670;13.544;2023-04-30T09:12:16;25.20;19.50
21335;DHT22;69435;52.670;13.544;2023-04-30T09:15:04;25.30;19.40
21335;DHT22;69435;52.670;13.544;2023-04-30T09:18:08;24.90;20.10
21335;DHT22;69435;52.670;13.544;2023-04-30T09:21:00;24.80;21.90
21335;DHT22;69435;52.670;13.544;2023-04-30T09:23:55;24.80;21.10
21335;DHT22;69435;52.670;13.544;2023-04-30T09:26:43;25.10;20.00
21335;DHT22;69435;52.670;13.544;2023-04-30T09:29:38;25.40;19.50
21335;DHT22;69435;52.670;13.544;2023-04-30T09:32:24;25.40;18.80
21335;DHT22;69435;52.670;13.544;2023-04-30T09:35:34;25.10;19.40
21335;DHT22;69435;52.670;13.544;2023-04-30T09:38:28;25.00;18.80
21335;DHT22;69435;52.670;13.544;2023-04-30T09:41:29;24.90;19.00
21335;DHT22;69435;52.670;13.544;2023-04-30T09:44:31;24.80;18.20
21335;DHT22;69435;52.670;13.544;2023-04-30T09:47:21;24.40;19.00
21335;DHT22;69435;52.670;13.544;2023-04-30T09:50:12;24.30;19.20
21335;DHT22;69435;52.670;13.544;2023-04-30T09:53:05;24.30;20.00
21335;DHT22;69435;52.670;13.544;2023-04-30T09:55:59;24.30;18.50
21335;DHT22;69435;52.670;13.544;2023-04-30T09:58:50;24.10;19.50
21335;DHT22;69435;52.670;13.544;2023-04-30T10:01:38;24.00;19.00
21335;DHT22;69435;52.670;13.544;2023-04-30T10:04:26;23.90;18.90
21335;DHT22;69435;52.670;13.544;2023-04-30T10:07:15;23.90;19.90
21335;DHT22;69435;52.670;13.544;2023-04-30T10:10:10;23.90;18.50
21335;DHT22;69435;52.670;13.544;2023-04-30T10:13:02;23.60;18.50
21335;DHT22;69435;52.670;13.544;2023-04-30T10:15:51;23.30;20.10
21335;DHT22;69435;52.670;13.544;2023-04-30T10:18:45;23.30;20.00
21335;DHT22;69435;52.670;13.544;2023-04-30T10:21:39;23.50;20.30
21335;DHT22;69435;52.670;13.544;2023-04-30T10:24:26;23.80;19.40
21335;DHT22;69435;52.670;13.544;2023-04-30T10:27:12;23.90;19.00
21335;DHT22;69435;52.670;13.544;2023-04-30T10:29:59;24.00;19.70
21335;DHT22;69435;52.670;13.544;2023-04-30T10:33:11;23.80;18.60
21335;DHT22;69435;52.670;13.544;2023-04-30T10:36:36;23.70;19.20
21335;DHT22;69435;52.670;13.544;2023-04-30T10:39:27;23.50;19.20
21335;DHT22;69435;52.670;13.544;2023-04-30T10:42:13;23.20;18.70
21335;DHT22;69435;52.670;13.544;2023-04-30T10:45:01;22.90;19.50
21335;DHT22;69435;52.670;13.544;2023-04-30T10:47:48;22.80;19.40
21335;DHT22;69435;52.670;13.544;2023-04-30T10:50:42;22.80;19.30
21335;DHT22;69435;52.670;13.544;2023-04-30T10:53:31;22.60;19.40
21335;DHT22;69435;52.670;13.544;2023-04-30T10:56:31;22.50;19.40
21335;DHT22;69435;52.670;13.544;2023-04-30T10:59:18;22.40;20.00
21335;DHT22;69435;52.670;13.544;2023-04-30T11:02:04;22.30;19.80
21335;DHT22;69435;52.670;13.544;2023-04-30T11:07:56;22.30;19.90
21335;DHT22;69435;52.670;13.544;2023-04-30T11:10:56;22.10;18.30
21335;DHT22;69435;52.670;13.544;2023-04-30T11:13:46;22.00;19.80
21335;DHT22;69435;52.670;13.544;2023-04-30T11:16:34;21.80;19.10
21335;DHT22;69435;52.670;13.544;2023-04-30T11:19:21;21.70;19.40
21335;DHT22;69435;52.670;13.544;2023-04-30T11:25:05;21.80;19.60
21335;DHT22;69435;52.670;13.544;2023-04-30T11:27:55;21.80;20.40
21335;DHT22;69435;52.670;13.544;2023-04-30T11:30:52;21.70;20.20
21335;DHT22;69435;52.670;13.544;2023-04-30T11:33:44;21.60;21.30
21335;DHT22;69435;52.670;13.544;2023-04-30T11:36:31;21.60;19.00
21335;DHT22;69435;52.670;13.544;2023-04-30T11:39:19;21.60;21.40
21335;DHT22;69435;52.670;13.544;2023-04-30T11:42:06;21.50;21.30
21335;DHT22;69435;52.670;13.544;2023-04-30T11:44:52;21.50;20.40
21335;DHT22;69435;52.670;13.544;2023-04-30T11:47:47;21.50;20.60
21335;DHT22;69435;52.670;13.544;2023-04-30T11:50:33;21.40;19.50
21335;DHT22;69435;52.670;13.544;2023-04-30T11:53:28;21.30;20.50
21335;DHT22;69435;52.670;13.544;2023-04-30T11:56:21;21.30;19.60
21335;DHT22;69435;52.670;13.544;2023-04-30T11:59:10;21.30;19.60
21335;DHT22;69435;52.670;13.544;2023-04-30T12:01:58;21.10;20.00
21335;DHT22;69435;52.670;13.544;2023-04-30T12:04:45;21.00;20.00
21335;DHT22;69435;52.670;13.544;2023-04-30T12:07:32;20.90;20.00
21335;DHT22;69435;52.670;13.544;2023-04-30T12:10:19;20.90;19.50
21335;DHT22;69435;52.670;13.544;2023-04-30T12:13:06;20.90;19.90
21335;DHT22;69435;52.670;13.544;2023-04-30T12:15:59;20.90;19.90
21335;DHT22;69435;52.670;13.544;2023-04-30T12:18:46;20.80;20.50
21335;DHT22;69435;52.670;13.544;2023-04-30T12:21:33;20.80;19.40
21335;DHT22;69435;52.670;13.544;2023-04-30T12:24:19;20.70;19.60
21335;DHT22;69435;52.670;13.544;2023-04-30T12:27:05;20.50;20.50
21335;DHT22;69435;52.670;13.544;2023-04-30T12:29:51;20.40;20.90
21335;DHT22;69435;52.670;13.544;2023-04-30T12:32:44;20.40;20.00
21335;DHT22;69435;52.670;13.544;2023-04-30T12:35:30;20.40;20.40
21335;DHT22;69435;52.670;13.544;2023-04-30T12:38:17;20.40;20.60
21335;DHT22;69435;52.670;13.544;2023-04-30T12:41:10;20.30;18.90
21335;DHT22;69435;52.670;13.544;2023-04-30T12:44:19;20.40;20.30
21335;DHT22;69435;52.670;13.544;2023-04-30T12:47:10;20.40;20.10
21335;DHT22;69435;52.670;13.544;2023-04-30T12:49:56;20.50;20.50
21335;DHT22;69435;52.670;13.544;2023-04-30T12:52:43;20.50;21.20
21335;DHT22;69435;52.670;13.544;2023-04-30T12:55:29;20.50;21.20
21335;DHT22;69435;52.670;13.544;2023-04-30T12:58:15;20.50;22.20
21335;DHT22;69435;52.670;13.544;2023-04-30T13:01:01;20.50;24.70
21335;DHT22;69435;52.670;13.544;2023-04-30T13:03:47;20.60;23.40
21335;DHT22;69435;52.670;13.544;2023-04-30T13:06:33;20.80;21.20
21335;DHT22;69435;52.670;13.544;2023-04-30T13:09:20;21.00;21.90
21335;DHT22;69435;52.670;13.544;2023-04-30T13:12:07;21.10;22.20
21335;DHT22;69435;52.670;13.544;2023-04-30T13:14:53;21.20;21.00
21335;DHT22;69435;52.670;13.544;2023-04-30T13:17:40;21.30;21.80
21335;DHT22;69435;52.670;13.544;2023-04-30T13:20:26;21.50;22.40
21335;DHT22;69435;52.670;13.544;2023-04-30T13:23:13;21.60;20.00
21335;DHT22;69435;52.670;13.544;2023-04-30T13:25:59;21.60;21.40
21335;DHT22;69435;52.670;13.544;2023-04-30T13:28:45;21.60;20.20
21335;DHT22;69435;52.670;13.544;2023-04-30T13:31:31;21.60;19.90
21335;DHT22;69435;52.670;13.544;2023-04-30T13:34:17;21.60;20.70
21335;DHT22;69435;52.670;13.544;2023-04-30T13:37:03;21.60;20.30
21335;DHT22;69435;52.670;13.544;2023-04-30T13:39:49;21.60;20.10
21335;DHT22;69435;52.670;13.544;2023-04-30T13:42:36;21.50;20.00
21335;DHT22;69435;52.670;13.544;2023-04-30T13:45:26;21.40;20.40
21335;DHT22;69435;52.670;13.544;2023-04-30T13:48:12;21.50;19.40
21335;DHT22;69435;52.670;13.544;2023-04-30T13:50:59;21.50;18.90
21335;DHT22;69435;52.670;13.544;2023-04-30T13:53:45;21.50;18.80
21335;DHT22;69435;52.670;13.544;2023-04-30T13:56:31;21.40;19.10
21335;DHT22;69435;52.670;13.544;2023-04-30T13:59:18;21.20;19.20
21335;DHT22;69435;52.670;13.544;2023-04-30T14:02:06;21.10;19.60
21335;DHT22;69435;52.670;13.544;2023-04-30T14:04:52;20.90;19.60
21335;DHT22;69435;52.670;13.544;2023-04-30T14:07:38;20.80;19.90
21335;DHT22;69435;52.670;13.544;2023-04-30T14:10:27;20.60;19.60
21335;DHT22;69435;52.670;13.544;2023-04-30T14:13:13;20.30;20.00
21335;DHT22;69435;52.670;13.544;2023-04-30T14:16:00;20.10;20.00
21335;DHT22;69435;52.670;13.544;2023-04-30T14:18:46;19.70;20.10
21335;DHT22;69435;52.670;13.544;2023-04-30T14:21:32;19.60;20.40
21335;DHT22;69435;52.670;13.544;2023-04-30T14:24:18;19.50;20.00
21335;DHT22;69435;52.670;13.544;2023-04-30T14:27:04;19.30;19.70
21335;DHT22;69435;52.670;13.544;2023-04-30T14:29:51;19.10;19.70
21335;DHT22;69435;52.670;13.544;2023-04-30T14:32:37;18.80;19.80
21335;DHT22;69435;52.670;13.544;2023-04-30T14:35:23;18.70;20.60
21335;DHT22;69435;52.670;13.544;2023-04-30T14:38:09;18.50;20.30
21335;DHT22;69435;52.670;13.544;2023-04-30T14:40:55;18.40;20.60
21335;DHT22;69435;52.670;13.544;2023-04-30T14:43:41;18.30;20.10
21335;DHT22;69435;52.670;13.544;2023-04-30T14:46:27;18.20;21.70
21335;DHT22;69435;52.670;13.544;2023-04-30T14:49:13;18.00;20.90
21335;DHT22;69435;52.670;13.544;2023-04-30T14:51:59;18.00;20.10
21335;DHT22;69435;52.670;13.544;2023-04-30T14:54:45;17.80;20.60
21335;DHT22;69435;52.670;13.544;2023-04-30T14:57:31;17.70;22.30
21335;DHT22;69435;52.670;13.544;2023-04-30T15:00:19;17.70;22.10
21335;DHT22;69435;52.670;13.544;2023-04-30T15:03:05;17.70;22.20
21335;DHT22;69435;52.670;13.544;2023-04-30T15:05:51;17.70;21.80
21335;DHT22;69435;52.670;13.544;2023-04-30T15:08:38;17.60;21.70
21335;DHT22;69435;52.670;13.544;2023-04-30T15:11:25;17.60;22.50
21335;DHT22;69435;52.670;13.544;2023-04-30T15:14:11;17.60;22.90
21335;DHT22;69435;52.670;13.544;2023-04-30T15:16:59;17.60;23.20
21335;DHT22;69435;52.670;13.544;2023-04-30T15:19:45;17.60;22.50
21335;DHT22;69435;52.670;13.544;2023-04-30T15:22:32;17.50;22.70
21335;DHT22;69435;52.670;13.544;2023-04-30T15:25:18;17.40;23.00
21335;DHT22;69435;52.670;13.544;2023-04-30T15:28:05;17.40;23.00
21335;DHT22;69435;52.670;13.544;2023-04-30T15:30:51;17.30;23.00
21335;DHT22;69435;52.670;13.544;2023-04-30T15:33:37;17.20;22.50
21335;DHT22;69435;52.670;13.544;2023-04-30T15:36:26;17.20;22.80
21335;DHT22;69435;52.670;13.544;2023-04-30T15:39:12;17.20;23.30
21335;DHT22;69435;52.670;13.544;2023-04-30T15:41:58;17.20;23.40
21335;DHT22;69435;52.670;13.544;2023-04-30T15:44:46;17.10;23.20
21335;DHT22;69435;52.670;13.544;2023-04-30T15:47:32;17.10;23.70
21335;DHT22;69435;52.670;13.544;2023-04-30T15:50:18;17.10;24.00
21335;DHT22;69435;52.670;13.544;2023-04-30T15:53:04;17.10;24.00
21335;DHT22;69435;52.670;13.544;2023-04-30T15:55:50;17.10;23.80
21335;DHT22;69435;52.670;13.544;2023-04-30T15:58:38;17.10;23.80
21335;DHT22;69435;52.670;13.544;2023-04-30T16:01:25;17.00;24.20
21335;DHT22;69435;52.670;13.544;2023-04-30T16:04:11;17.00;24.30
21335;DHT22;69435;52.670;13.544;2023-04-30T16:06:59;17.00;24.40
21335;DHT22;69435;52.670;13.544;2023-04-30T16:09:48;16.90;24.40
21335;DHT22;69435;52.670;13.544;2023-04-30T16:12:35;16.90;24.50
21335;DHT22;69435;52.670;13.544;2023-04-30T16:15:22;16.90;23.90
21335;DHT22;69435;52.670;13.544;2023-04-30T16:18:09;16.80;24.30
21335;DHT22;69435;52.670;13.544;2023-04-30T16:20:55;16.90;24.00
21335;DHT22;69435;52.670;13.544;2023-04-30T16:23:44;16.80;25.00
21335;DHT22;69435;52.670;13.544;2023-04-30T16:26:32;16.80;24.60
21335;DHT22;69435;52.670;13.544;2023-04-30T16:29:21;16.80;25.50
21335;DHT22;69435;52.670;13.544;2023-04-30T16:32:07;16.70;25.70
21335;DHT22;69435;52.670;13.544;2023-04-30T16:34:53;16.70;25.20
21335;DHT22;69435;52.670;13.544;2023-04-30T16:37:40;16.60;24.90
21335;DHT22;69435;52.670;13.544;2023-04-30T16:40:29;16.60;24.80
21335;DHT22;69435;52.670;13.544;2023-04-30T16:43:15;16.70;25.50
21335;DHT22;69435;52.670;13.544;2023-04-30T16:46:01;16.60;24.60
21335;DHT22;69435;52.670;13.544;2023-04-30T16:48:47;16.60;25.20
21335;DHT22;69435;52.670;13.544;2023-04-30T16:51:34;16.60;24.40
21335;DHT22;69435;52.670;13.544;2023-04-30T16:54:20;16.60;25.50
21335;DHT22;69435;52.670;13.544;2023-04-30T16:57:05;16.60;24.90
21335;DHT22;69435;52.670;13.544;2023-04-30T16:59:51;16.60;24.90
21335;DHT22;69435;52.670;13.544;2023-04-30T17:02:38;16.60;25.20
21335;DHT22;69435;52.670;13.544;2023-04-30T17:05:25;16.60;24.80
21335;DHT22;69435;52.670;13.544;2023-04-30T17:08:11;16.60;25.40
21335;DHT22;69435;52.670;13.544;2023-04-30T17:10:57;16.60;25.80
21335;DHT22;69435;52.670;13.544;2023-04-30T17:13:43;16.50;26.10
21335;DHT22;69435;52.670;13.544;2023-04-30T17:16:29;16.40;25.40
21335;DHT22;69435;52.670;13.544;2023-04-30T17:19:15;16.40;26.80
21335;DHT22;69435;52.670;13.544;2023-04-30T17:22:02;16.40;27.60
21335;DHT22;69435;52.670;13.544;2023-04-30T17:24:50;16.30;27.70
21335;DHT22;69435;52.670;13.544;2023-04-30T17:27:38;16.30;27.80
21335;DHT22;69435;52.670;13.544;2023-04-30T17:30:24;16.20;28.00
21335;DHT22;69435;52.670;13.544;2023-04-30T17:33:10;16.10;28.20
21335;DHT22;69435;52.670;13.544;2023-04-30T17:35:56;16.10;27.60
21335;DHT22;69435;52.670;13.544;2023-04-30T17:38:43;16.00;28.00